Time;durP1;ratioP1;P1;durP2;ratioP2;P2;SDS_P1;SDS_P2;PMS_P1;PMS_P2;Temp;Humidity;BMP_temperature;BMP_pressure;BME280_temperature;BME280_humidity;BME280_pressure;Samples;Min_cycle;Max_cycle;Signal;HPM_P1;HPM_P2
2022/08/26 00:00:49;;;;;;;8.00;5.37;;;;;;;21.57;70.18;97772.97;5060380;28;20311;-72
2022/08/26 00:03:17;;;;;;;7.40;5.60;;;;;;;21.53;70.25;97771.16;5059749;28;20300;-72
2022/08/26 00:05:44;;;;;;;7.53;4.83;;;;;;;21.44;70.61;97781.03;5059684;28;20292;-72
2022/08/26 00:08:12;;;;;;;7.83;5.50;;;;;;;21.39;70.78;97781.91;5059490;28;20231;-72
2022/08/26 00:10:39;;;;;;;9.33;5.07;;;;;;;21.38;70.28;97777.59;5059913;28;20221;-72
2022/08/26 00:13:08;;;;;;;4.73;4.33;;;;;;;21.34;70.04;97770.38;5059622;28;20205;-72
2022/08/26 00:15:35;;;;;;;6.00;4.83;;;;;;;21.31;70.32;97774.47;5059702;28;20201;-72
2022/08/26 00:18:02;;;;;;;5.17;4.67;;;;;;;21.28;70.50;97769.66;5059311;28;20201;-72
2022/08/26 00:20:31;;;;;;;4.90;4.50;;;;;;;21.21;70.88;97771.13;5059448;28;20311;-72
2022/08/26 00:22:58;;;;;;;4.50;4.10;;;;;;;21.22;70.23;97768.13;5059071;28;20205;-72
2022/08/26 00:25:25;;;;;;;5.83;4.50;;;;;;;21.20;70.30;97758.72;5059231;28;20211;-72
2022/08/26 00:27:52;;;;;;;4.80;4.40;;;;;;;21.21;70.63;97765.72;5059044;28;20722;-72
2022/08/26 00:30:26;;;;;;;5.30;4.80;;;;;;;21.14;70.68;97760.69;5059429;28;20232;-72
2022/08/26 00:32:53;;;;;;;5.37;4.83;;;;;;;21.04;71.21;97770.84;5059512;28;20185;-72
2022/08/26 00:35:20;;;;;;;4.70;4.30;;;;;;;20.97;71.63;97767.69;5059546;28;20292;-72
2022/08/26 00:37:46;;;;;;;5.80;4.57;;;;;;;21.00;71.72;97767.09;5059496;28;20205;-72
2022/08/26 00:40:17;;;;;;;5.50;4.93;;;;;;;21.01;71.53;97774.91;5059177;28;20229;-72
2022/08/26 00:42:44;;;;;;;4.50;4.10;;;;;;;21.02;71.66;97765.72;5059321;28;20190;-72
2022/08/26 00:45:11;;;;;;;5.13;4.60;;;;;;;20.99;71.51;97774.41;5059239;28;20202;-72
2022/08/26 00:47:43;;;;;;;5.10;4.60;;;;;;;21.05;71.64;97769.72;5059456;28;20225;-72
2022/08/26 00:50:14;;;;;;;5.83;4.90;;;;;;;21.06;71.29;97782.13;5054664;28;20225;-72
2022/08/26 00:52:41;;;;;;;5.47;4.80;;;;;;;21.05;71.13;97785.94;5056391;28;20199;-72
2022/08/26 00:55:16;;;;;;;4.60;4.13;;;;;;;20.99;71.06;97779.00;5056123;28;20292;-72
2022/08/26 00:57:43;;;;;;;4.33;3.93;;;;;;;21.00;71.19;97786.84;5056549;28;20212;-72
2022/08/26 01:00:14;;;;;;;4.60;4.20;;;;;;;20.95;71.12;97784.22;5055976;28;20320;-72
2022/08/26 01:02:42;;;;;;;4.70;4.30;;;;;;;20.88;71.76;97782.91;5056594;28;20190;-72
2022/08/26 01:05:11;;;;;;;5.00;4.23;;;;;;;20.82;72.35;97781.38;5055907;28;20292;-72
2022/08/26 01:07:38;;;;;;;6.43;4.50;;;;;;;20.81;72.46;97785.19;5055477;28;20781;-72
2022/08/26 01:10:10;;;;;;;8.40;4.77;;;;;;;20.72;72.68;97784.22;5055896;28;20237;-72
2022/08/26 01:12:42;;;;;;;5.53;4.20;;;;;;;20.69;73.04;97780.19;5055689;28;20197;-72
2022/08/26 01:15:16;;;;;;;6.53;4.60;;;;;;;20.68;73.48;97785.88;5055724;28;20196;-72
2022/08/26 01:17:42;;;;;;;6.73;4.47;;;;;;;20.67;73.21;97778.88;5055657;28;20196;-72
2022/08/26 01:20:23;;;;;;;6.33;4.97;;;;;;;20.61;74.09;97771.94;5055243;28;20311;-72
2022/08/26 01:22:56;;;;;;;5.50;5.00;;;;;;;20.64;74.04;97776.75;5055634;28;20200;-72
2022/08/26 01:25:25;;;;;;;5.70;5.20;;;;;;;20.56;74.75;97774.69;5055272;28;20633;-72
2022/08/26 01:27:52;;;;;;;5.67;5.17;;;;;;;20.58;74.86;97769.81;5038000;28;20658;-72
2022/08/26 01:30:19;;;;;;;8.63;5.30;;;;;;;20.65;74.76;97772.94;5054945;28;20248;-72
2022/08/26 01:32:48;;;;;;;7.33;5.20;;;;;;;20.59;75.31;97766.81;5055071;28;20239;-72
2022/08/26 01:35:15;;;;;;;5.93;5.33;;;;;;;20.57;75.32;97763.59;5055384;28;20305;-72
2022/08/26 01:37:41;;;;;;;5.73;4.90;;;;;;;20.56;75.70;97777.38;5055424;28;20292;-72
2022/08/26 01:40:12;;;;;;;6.53;4.90;;;;;;;20.58;75.27;97776.00;5055259;28;20225;-72
2022/08/26 01:42:40;;;;;;;5.77;5.23;;;;;;;20.56;75.77;97769.28;5055333;28;20552;-72
2022/08/26 01:45:14;;;;;;;7.43;5.27;;;;;;;20.56;75.59;97767.41;5055249;28;20209;-72
2022/08/26 01:47:42;;;;;;;6.20;5.60;;;;;;;20.47;76.31;97776.41;5055102;28;20209;-72
2022/08/26 01:50:15;;;;;;;6.00;5.40;;;;;;;20.40;76.72;97770.56;5055037;28;20256;-72
2022/08/26 01:52:44;;;;;;;7.10;5.50;;;;;;;20.39;76.91;97777.84;5055043;28;20190;-72
2022/08/26 01:55:14;;;;;;;6.47;5.87;;;;;;;20.45;76.58;97778.63;5055074;28;20209;-72
2022/08/26 01:57:44;;;;;;;6.27;5.50;;;;;;;20.36;77.35;97772.25;5055215;28;20212;-72
2022/08/26 02:00:12;;;;;;;6.33;5.73;;;;;;;20.40;77.30;97773.28;5054220;28;20708;-72
2022/08/26 02:02:41;;;;;;;6.53;5.93;;;;;;;20.26;78.12;97767.75;5054875;28;20201;-72
2022/08/26 02:05:11;;;;;;;7.60;5.80;;;;;;;20.27;78.22;97782.06;5054948;28;20541;-72
2022/08/26 02:07:39;;;;;;;6.77;5.90;;;;;;;20.24;78.46;97779.94;5054674;28;20221;-72
2022/08/26 02:10:06;;;;;;;6.90;6.17;;;;;;;20.23;78.81;97778.31;5054441;28;20221;-72
2022/08/26 02:12:33;;;;;;;7.67;6.03;;;;;;;20.24;78.76;97783.44;5054628;28;20569;-72
2022/08/26 02:15:03;;;;;;;8.97;6.40;;;;;;;20.25;78.97;97782.34;5037043;28;20209;-72
2022/08/26 02:17:34;;;;;;;7.33;6.20;;;;;;;20.20;79.46;97789.69;5054318;28;20629;-72
2022/08/26 02:20:02;;;;;;;7.90;6.83;;;;;;;20.26;79.18;97775.84;5036890;28;20704;-72
2022/08/26 02:22:31;;;;;;;7.30;6.60;;;;;;;20.27;79.30;97779.38;5054243;28;20718;-72
2022/08/26 02:25:00;;;;;;;7.93;7.00;;;;;;;20.25;79.34;97782.34;5054401;28;20220;-72
2022/08/26 02:27:34;;;;;;;7.60;6.83;;;;;;;20.26;79.38;97778.53;5054113;28;20221;-72
2022/08/26 02:30:06;;;;;;;6.83;6.10;;;;;;;20.22;79.59;97782.13;5053919;28;20609;-72
2022/08/26 02:32:33;;;;;;;9.63;7.17;;;;;;;20.20;79.74;97781.59;5054045;28;20241;-72
2022/08/26 02:34:59;;;;;;;8.43;7.20;;;;;;;20.14;80.07;97788.97;5053979;28;20652;-72
2022/08/26 02:37:29;;;;;;;7.70;7.00;;;;;;;20.04;80.66;97775.53;5053975;28;20702;-72
2022/08/26 02:39:55;;;;;;;8.00;7.20;;;;;;;20.06;81.02;97783.31;5054140;28;20609;-72
2022/08/26 02:42:25;;;;;;;10.63;7.50;;;;;;;20.06;81.19;97776.03;5053877;28;20726;-72
2022/08/26 02:44:51;;;;;;;9.97;7.77;;;;;;;20.02;81.64;97771.53;5054125;28;20236;-72
2022/08/26 02:47:18;;;;;;;9.47;7.47;;;;;;;20.01;81.88;97777.97;5054000;28;20577;-72
2022/08/26 02:49:45;;;;;;;9.60;7.73;;;;;;;20.03;81.98;97779.31;5053910;28;20316;-72
2022/08/26 02:52:12;;;;;;;8.60;7.73;;;;;;;20.03;81.43;97773.91;5054017;28;20575;-72
2022/08/26 02:54:38;;;;;;;8.60;7.63;;;;;;;20.01;81.71;97777.97;5053940;28;20632;-72
2022/08/26 02:57:05;;;;;;;9.93;7.17;;;;;;;19.89;82.43;97777.59;5053888;28;20212;-72
2022/08/26 02:59:32;;;;;;;11.43;8.00;;;;;;;19.93;82.29;97775.94;5053828;28;20225;-72
2022/08/26 03:01:59;;;;;;;8.13;7.27;;;;;;;19.97;81.86;97776.94;5053802;28;20287;-72
2022/08/26 03:04:25;;;;;;;12.20;8.00;;;;;;;19.94;82.34;97772.13;5053749;28;20205;-72
2022/08/26 03:06:52;;;;;;;8.50;7.70;;;;;;;19.87;82.57;97779.75;5053655;28;20201;-72
2022/08/26 03:09:18;;;;;;;8.33;7.43;;;;;;;19.73;83.40;97769.63;5053366;28;20320;-72
2022/08/26 03:11:46;;;;;;;8.97;8.07;;;;;;;19.72;84.03;97771.81;5053023;28;20292;-72
2022/08/26 03:14:13;;;;;;;8.33;7.40;;;;;;;19.76;83.82;97768.25;5053581;28;20205;-72
2022/08/26 03:16:39;;;;;;;7.63;6.80;;;;;;;19.82;83.35;97767.13;5053228;28;20260;-73
2022/08/26 03:19:08;;;;;;;8.37;7.37;;;;;;;19.78;83.61;97764.16;5053059;28;20785;-72
2022/08/26 03:21:35;;;;;;;12.23;7.23;;;;;;;19.78;83.77;97760.69;5053163;28;20672;-72
2022/08/26 03:24:02;;;;;;;10.17;7.17;;;;;;;19.86;83.61;97753.88;5053137;28;20668;-72
2022/08/26 03:26:28;;;;;;;8.73;7.23;;;;;;;19.89;83.74;97758.69;5053137;28;20296;-72
2022/08/26 03:31:40;;;;;;;7.93;7.03;;;;;;;19.88;83.68;97759.75;5053354;28;20176;-72
2022/08/26 03:34:06;;;;;;;7.40;6.80;;;;;;;19.85;84.06;97758.44;5052997;28;20287;-72
2022/08/26 03:36:33;;;;;;;8.07;7.27;;;;;;;19.82;84.04;97763.63;5052944;28;20691;-72
2022/08/26 03:38:59;;;;;;;8.40;6.83;;;;;;;19.83;84.30;97762.53;5053122;28;20229;-72
2022/08/26 03:41:26;;;;;;;8.20;7.40;;;;;;;19.77;84.33;97754.47;5053264;28;20212;-72
2022/08/26 03:43:52;;;;;;;9.53;7.20;;;;;;;19.78;84.43;97761.47;5053184;28;20256;-72
2022/08/26 03:46:19;;;;;;;8.17;6.97;;;;;;;19.73;84.76;97764.22;5052921;28;20300;-72
2022/08/26 03:48:46;;;;;;;8.53;6.80;;;;;;;19.73;84.79;97768.00;5052758;28;20762;-72
2022/08/26 03:51:16;;;;;;;8.47;7.37;;;;;;;19.66;85.20;97768.34;5052903;28;20569;-72
2022/08/26 03:53:43;;;;;;;9.10;7.43;;;;;;;19.64;85.44;97765.94;5052754;28;20296;-72
2022/08/26 03:56:10;;;;;;;8.37;7.00;;;;;;;19.67;85.12;97774.56;5053290;28;20216;-72
2022/08/26 03:58:37;;;;;;;8.37;7.27;;;;;;;19.67;85.35;97763.75;5053254;28;20205;-72
2022/08/26 04:01:04;;;;;;;8.27;7.10;;;;;;;19.67;85.01;97765.38;5052559;28;20229;-72
2022/08/26 04:06:16;;;;;;;8.00;7.20;;;;;;;19.67;85.04;97769.94;5052539;28;20663;-72
2022/08/26 04:08:43;;;;;;;8.33;7.43;;;;;;;19.72;84.51;97772.63;5052312;28;20225;-72
2022/08/26 04:11:19;;;;;;;8.47;7.37;;;;;;;19.72;84.59;97771.81;5052984;28;20205;-72
2022/08/26 04:13:46;;;;;;;8.70;7.20;;;;;;;19.57;85.11;97771.94;5053004;28;20533;-72
2022/08/26 04:16:14;;;;;;;9.43;8.00;;;;;;;19.51;85.30;97763.88;5052511;28;20569;-72
2022/08/26 04:18:40;;;;;;;8.10;7.30;;;;;;;19.54;85.03;97773.31;5052858;28;20298;-72
2022/08/26 04:21:07;;;;;;;10.27;7.90;;;;;;;19.54;85.50;97770.63;5052385;28;20217;-72
2022/08/26 04:23:34;;;;;;;8.33;7.47;;;;;;;19.46;85.68;97769.31;5054195;28;20209;-72
2022/08/26 04:26:02;;;;;;;8.03;7.33;;;;;;;19.41;85.94;97763.97;5056336;28;20295;-72
2022/08/26 04:28:29;;;;;;;8.77;7.27;;;;;;;19.43;85.99;97759.13;5056137;28;20595;-72
2022/08/26 04:30:56;;;;;;;7.83;7.17;;;;;;;19.46;85.74;97758.53;5056304;28;20276;-72
2022/08/26 04:33:23;;;;;;;9.60;7.53;;;;;;;19.44;85.66;97757.19;5056620;28;20236;-72
2022/08/26 04:35:49;;;;;;;8.23;7.30;;;;;;;19.30;86.80;97754.38;5056397;28;20215;-72
2022/08/26 04:38:18;;;;;;;8.87;6.97;;;;;;;19.27;87.05;97757.63;5056262;28;20201;-72
2022/08/26 04:40:47;;;;;;;10.37;6.80;;;;;;;19.31;86.93;97755.16;5056108;28;20232;-72
2022/08/26 04:43:14;;;;;;;7.63;6.83;;;;;;;19.35;86.32;97759.72;5055693;28;20207;-72
2022/08/26 04:45:42;;;;;;;7.87;7.17;;;;;;;19.33;86.13;97756.50;5056055;28;20200;-72
2022/08/26 04:48:09;;;;;;;7.43;6.60;;;;;;;19.37;85.86;97754.03;5056043;28;20233;-72
2022/08/26 04:50:35;;;;;;;7.40;6.60;;;;;;;19.31;85.75;97761.34;5055705;28;20727;-72
2022/08/26 04:53:03;;;;;;;7.60;6.50;;;;;;;19.31;85.43;97758.66;5056107;28;20201;-72
2022/08/26 04:55:29;;;;;;;7.83;7.03;;;;;;;19.31;85.60;97758.66;5056502;28;20209;-71
2022/08/26 04:57:56;;;;;;;7.50;6.80;;;;;;;19.35;85.24;97769.69;5056226;28;20198;-72
2022/08/26 05:00:23;;;;;;;6.93;6.10;;;;;;;19.33;84.95;97756.50;5055705;28;20331;-72
2022/08/26 05:02:49;;;;;;;8.10;6.50;;;;;;;19.43;84.16;97758.28;5056294;28;20213;-72
2022/08/26 05:05:16;;;;;;;9.60;6.47;;;;;;;19.22;84.94;97768.44;5055821;28;20240;-72
2022/08/26 05:07:43;;;;;;;6.67;6.17;;;;;;;19.30;84.54;97775.13;5055440;28;20647;-72
2022/08/26 05:10:10;;;;;;;8.73;6.80;;;;;;;19.36;84.82;97777.50;5055169;28;20711;-72
2022/08/26 05:12:36;;;;;;;6.93;6.33;;;;;;;19.43;84.38;97779.88;5055234;28;20216;-70
2022/08/26 05:15:03;;;;;;;7.00;6.37;;;;;;;19.46;84.17;97773.91;5055263;28;20273;-72
2022/08/26 05:17:30;;;;;;;7.20;6.50;;;;;;;19.46;83.84;97780.09;5055482;28;20220;-72
2022/08/26 05:19:56;;;;;;;6.50;6.00;;;;;;;19.48;83.73;97768.25;5055131;28;20261;-72
2022/08/26 05:22:23;;;;;;;6.87;6.00;;;;;;;19.56;83.34;97773.84;5055630;28;20205;-72
2022/08/26 05:24:49;;;;;;;6.83;6.13;;;;;;;19.53;83.26;97775.19;5055260;28;20211;-72
2022/08/26 05:27:15;;;;;;;6.57;6.00;;;;;;;19.55;82.93;97767.63;5055324;28;20307;-72
2022/08/26 05:29:42;;;;;;;7.30;6.20;;;;;;;19.60;82.87;97774.88;5054956;28;20229;-72
2022/08/26 05:32:08;;;;;;;6.77;6.17;;;;;;;19.64;82.59;97778.63;5055095;28;20209;-72
2022/08/26 05:34:36;;;;;;;6.50;6.00;;;;;;;19.64;82.36;97776.72;5054140;28;20541;-72
2022/08/26 05:37:03;;;;;;;6.80;6.07;;;;;;;19.64;82.26;97781.31;5054884;28;20201;-72
2022/08/26 05:39:32;;;;;;;7.40;6.50;;;;;;;19.63;81.64;97783.19;5054961;28;20261;-72
2022/08/26 05:41:58;;;;;;;7.47;6.67;;;;;;;19.62;81.81;97772.69;5054974;28;20240;-72
2022/08/26 05:44:25;;;;;;;6.63;5.97;;;;;;;19.60;81.82;97780.28;5055285;28;20209;-72
2022/08/26 05:46:51;;;;;;;6.40;5.80;;;;;;;19.62;81.60;97777.28;5054875;28;20297;-72
2022/08/26 05:49:19;;;;;;;6.47;5.63;;;;;;;19.59;81.66;97779.47;5054777;28;20387;-72
2022/08/26 05:51:46;;;;;;;8.53;6.13;;;;;;;19.63;81.30;97785.09;5054340;28;20209;-72
2022/08/26 05:54:14;;;;;;;6.53;5.93;;;;;;;19.73;80.99;97792.28;5054962;28;20209;-72
2022/08/26 05:56:40;;;;;;;6.27;5.67;;;;;;;19.78;80.88;97799.25;5054608;28;20215;-72
2022/08/26 05:59:13;;;;;;;7.33;6.20;;;;;;;19.81;80.46;97795.16;5054681;28;20253;-72
2022/08/26 06:01:39;;;;;;;7.77;5.90;;;;;;;19.82;80.05;97794.09;5054834;28;20189;-72
2022/08/26 06:04:06;;;;;;;8.50;6.30;;;;;;;19.86;79.82;97794.34;5054374;28;20652;-72
2022/08/26 06:06:35;;;;;;;7.53;6.17;;;;;;;19.83;80.28;97790.31;5055124;28;20212;-72
2022/08/26 06:09:05;;;;;;;6.27;5.67;;;;;;;19.89;79.95;97794.56;5054470;28;20233;-72
2022/08/26 06:11:32;;;;;;;8.37;6.30;;;;;;;19.89;79.71;97802.66;5054357;28;20694;-72
2022/08/26 06:14:02;;;;;;;7.47;6.20;;;;;;;19.92;79.41;97804.78;5054477;28;20205;-72
2022/08/26 06:16:29;;;;;;;7.17;6.47;;;;;;;19.89;79.64;97804.56;5054538;28;20312;-72
2022/08/26 06:18:56;;;;;;;6.10;5.37;;;;;;;19.88;79.71;97803.75;5054132;28;20205;-72
2022/08/26 06:21:29;;;;;;;7.27;6.37;;;;;;;19.91;79.60;97807.78;5054034;28;20308;-72
2022/08/26 06:26:49;;;;;;;6.60;6.00;;;;;;;19.99;79.19;97810.66;5054260;28;20223;-72
2022/08/26 06:29:16;;;;;;;9.20;6.57;;;;;;;20.02;78.63;97815.47;5053811;28;20243;-72
2022/08/26 06:31:42;;;;;;;6.90;6.30;;;;;;;20.07;78.78;97812.72;5054292;28;20250;-72
2022/08/26 06:34:09;;;;;;;8.70;6.30;;;;;;;20.08;78.69;97808.97;5053663;28;20694;-72
2022/08/26 06:36:36;;;;;;;8.90;6.27;;;;;;;20.13;78.75;97817.03;5053780;28;20330;-72
2022/08/26 06:39:06;;;;;;;7.77;6.03;;;;;;;20.18;78.63;97808.91;5053553;28;20600;-72
2022/08/26 06:41:34;;;;;;;8.73;5.93;;;;;;;20.22;78.14;97815.34;5053772;28;20205;-72
2022/08/26 06:44:01;;;;;;;8.97;6.33;;;;;;;20.36;77.52;97818.13;5053501;28;20300;-72
2022/08/26 06:46:28;;;;;;;8.10;6.03;;;;;;;20.51;76.59;97817.97;5053032;28;20300;-72
2022/08/26 06:48:56;;;;;;;6.70;6.00;;;;;;;20.39;77.23;97815.66;5053801;28;20236;-72
2022/08/26 06:51:29;;;;;;;6.93;6.03;;;;;;;20.41;77.34;97809.97;5053869;28;20209;-72
2022/08/26 06:53:58;;;;;;;7.13;6.47;;;;;;;20.43;77.30;97811.31;5053730;28;20196;-72
2022/08/26 06:56:29;;;;;;;6.60;6.00;;;;;;;20.47;77.12;97814.22;5053356;28;20259;-72
2022/08/26 06:58:55;;;;;;;10.67;5.70;;;;;;;20.53;77.62;97813.09;5053796;28;20221;-72
2022/08/26 07:01:33;;;;;;;7.27;6.03;;;;;;;20.51;76.83;97818.78;5053558;28;20567;-73
2022/08/26 07:04:03;;;;;;;9.93;6.40;;;;;;;20.56;76.74;97809.78;5053475;28;20215;-72
2022/08/26 07:06:30;;;;;;;8.77;6.60;;;;;;;20.57;76.59;97806.81;5053458;28;20224;-72
2022/08/26 07:09:03;;;;;;;7.07;6.10;;;;;;;20.59;76.38;97814.63;5053332;28;20217;-72
2022/08/26 07:11:31;;;;;;;10.80;6.70;;;;;;;20.61;76.11;97813.25;5053216;28;20632;-72
2022/08/26 07:13:58;;;;;;;10.90;6.50;;;;;;;20.69;75.69;97815.31;5053027;28;20668;-71
2022/08/26 07:16:26;;;;;;;7.43;6.37;;;;;;;20.69;75.46;97820.72;5053463;28;20205;-72
2022/08/26 07:18:54;;;;;;;10.50;6.33;;;;;;;20.82;75.05;97819.19;5053004;28;20674;-72
2022/08/26 07:21:22;;;;;;;8.67;7.13;;;;;;;20.93;75.04;97820.72;5053246;28;20221;-72
2022/08/26 07:23:49;;;;;;;10.03;6.87;;;;;;;20.88;74.89;97823.44;5053166;28;20881;-71
2022/08/26 07:26:19;;;;;;;9.37;6.83;;;;;;;21.01;74.57;97820.88;5053452;28;20296;-71
2022/08/26 07:28:47;;;;;;;7.83;6.60;;;;;;;21.01;73.97;97822.75;5052630;28;20743;-71
2022/08/26 07:31:16;;;;;;;9.20;6.50;;;;;;;21.08;74.54;97828.63;5052402;28;20710;-70
2022/08/26 07:33:43;;;;;;;7.97;7.00;;;;;;;21.12;74.12;97827.72;5052672;28;20259;-71
2022/08/26 07:36:11;;;;;;;7.97;6.67;;;;;;;21.07;73.70;97827.81;5052929;28;20304;-70
2022/08/26 07:38:39;;;;;;;13.43;7.10;;;;;;;21.04;73.72;97827.59;5052913;28;20297;-71
2022/08/26 07:41:07;;;;;;;10.57;6.37;;;;;;;21.19;73.70;97827.38;5052987;28;20722;-71
2022/08/26 07:43:35;;;;;;;9.47;7.53;;;;;;;21.19;72.67;97827.38;5052807;28;20607;-71
2022/08/26 07:46:02;;;;;;;10.53;6.90;;;;;;;21.21;72.94;97823.28;5053180;28;20296;-71
2022/08/26 07:48:29;;;;;;;9.63;6.20;;;;;;;21.23;72.60;97831.09;5052935;28;20232;-71
2022/08/26 07:50:55;;;;;;;7.70;6.37;;;;;;;21.31;73.21;97833.16;5052604;28;20240;-71
2022/08/26 07:53:22;;;;;;;6.40;5.80;;;;;;;21.45;72.61;97828.63;5052694;28;20690;-71
2022/08/26 07:55:49;;;;;;;7.90;7.07;;;;;;;21.65;71.26;97829.09;5052914;28;20219;-71
2022/08/26 07:58:16;;;;;;;7.77;6.70;;;;;;;21.80;70.42;97831.59;5053993;28;20208;-70
2022/08/26 08:00:42;;;;;;;9.17;6.90;;;;;;;21.77;70.29;97831.38;5056802;28;20319;-71
2022/08/26 08:03:09;;;;;;;8.07;6.57;;;;;;;21.85;69.48;97833.41;5056822;28;20661;-70
2022/08/26 08:05:37;;;;;;;9.10;6.83;;;;;;;21.92;68.94;97839.25;5057604;28;20232;-70
2022/08/26 08:08:07;;;;;;;12.37;6.80;;;;;;;21.93;69.13;97836.25;5056791;28;20291;-70
2022/08/26 08:10:35;;;;;;;9.13;6.40;;;;;;;22.08;68.71;97841.41;5056600;28;20225;-70
2022/08/26 08:13:02;;;;;;;9.00;7.00;;;;;;;22.06;68.86;97845.53;5056578;28;20211;-70
2022/08/26 08:15:30;;;;;;;7.47;6.00;;;;;;;22.17;68.56;97836.09;5056479;28;20288;-69
2022/08/26 08:17:57;;;;;;;7.00;6.03;;;;;;;22.29;68.04;97839.16;5056538;28;20295;-70
2022/08/26 08:20:25;;;;;;;7.90;6.00;;;;;;;22.46;66.75;97836.66;5056557;28;20221;-70
2022/08/26 08:22:53;;;;;;;8.60;5.87;;;;;;;22.63;65.97;97834.16;5056359;28;20296;-70
2022/08/26 08:25:20;;;;;;;12.10;6.50;;;;;;;22.77;65.05;97832.25;5057259;28;20218;-70
2022/08/26 08:27:47;;;;;;;6.70;5.93;;;;;;;22.95;64.04;97834.88;5056347;28;20292;-70
2022/08/26 08:30:15;;;;;;;7.28;5.53;;;;;;;23.15;63.26;97829.00;5055989;28;20602;-71
2022/08/26 08:32:43;;;;;;;6.13;5.32;;;;;;;23.11;63.59;97828.00;5056024;28;20567;-70
2022/08/26 08:35:10;;;;;;;10.07;5.60;;;;;;;23.37;63.01;97828.25;5056330;28;20212;-70
2022/08/26 08:37:37;;;;;;;7.00;5.40;;;;;;;23.67;61.26;97830.28;5056433;28;20300;-71
2022/08/26 08:40:06;;;;;;;15.23;12.60;;;;;;;23.66;61.28;97820.53;5055783;28;20223;-70
2022/08/26 08:42:46;;;;;;;11.10;9.02;;;;;;;23.60;60.98;97827.19;5056294;28;20229;-70
2022/08/26 08:45:14;;;;;;;8.48;5.70;;;;;;;23.81;60.66;97828.28;5056056;28;20280;-70
2022/08/26 08:47:49;;;;;;;6.32;5.70;;;;;;;24.07;59.62;97823.88;5056024;28;20208;-71
2022/08/26 08:50:27;;;;;;;7.78;4.70;;;;;;;24.04;58.63;97819.84;5055723;28;20258;-70
2022/08/26 08:53:11;;;;;;;6.60;5.13;;;;;;;24.43;58.09;97817.16;5056035;28;20199;-70
2022/08/26 08:55:57;;;;;;;9.82;4.70;;;;;;;24.66;56.94;97813.31;5055578;28;20639;-71
2022/08/26 08:58:33;;;;;;;4.80;4.40;;;;;;;24.72;56.38;97806.59;5055467;28;20727;-71
2022/08/26 09:01:08;;;;;;;6.07;4.40;;;;;;;24.75;56.17;97803.25;5055827;28;20233;-71
2022/08/26 09:03:59;;;;;;;6.25;4.35;;;;;;;24.67;55.96;97809.47;5055954;28;20189;-71
2022/08/26 09:06:25;;;;;;;28.08;25.17;;;;;;;24.83;55.92;97807.91;5055918;28;20193;-70
2022/08/26 09:08:52;;;;;;;11.93;8.07;;;;;;;24.89;55.70;97806.66;5055586;28;20236;-71
2022/08/26 09:11:20;;;;;;;6.15;4.43;;;;;;;25.35;55.30;97795.22;5054664;28;20205;-71
2022/08/26 09:13:52;;;;;;;9.80;7.90;;;;;;;25.27;54.05;97804.97;5055170;28;20547;-71
2022/08/26 09:16:32;;;;;;;11.40;9.70;;;;;;;25.08;54.25;97804.44;5055407;28;20213;-71
2022/08/26 09:19:13;;;;;;;10.93;9.93;;;;;;;25.28;53.39;97801.13;5055567;28;20189;-70
2022/08/26 09:21:39;;;;;;;5.15;4.63;;;;;;;25.79;52.48;97805.75;5055168;28;20224;-70
2022/08/26 09:24:07;;;;;;;8.13;4.65;;;;;;;25.99;51.23;97805.09;5055195;28;20295;-70
2022/08/26 09:26:39;;;;;;;4.63;3.45;;;;;;;26.39;49.30;97809.16;5054175;28;20201;-71
2022/08/26 09:29:18;;;;;;;9.15;7.45;;;;;;;26.22;49.99;97801.03;5052666;28;20240;-70
2022/08/26 09:31:45;;;;;;;5.68;5.18;;;;;;;26.26;50.63;97796.53;5053643;28;20259;-70
2022/08/26 09:34:22;;;;;;;9.70;8.27;;;;;;;26.11;50.56;97794.34;5053943;28;20207;-70
2022/08/26 09:36:57;;;;;;;4.47;4.07;;;;;;;26.30;50.03;97792.03;5053743;28;20637;-70
2022/08/26 09:39:26;;;;;;;9.88;6.40;;;;;;;26.18;50.43;97792.72;5054897;28;20225;-70
2022/08/26 09:42:10;;;;;;;7.05;4.75;;;;;;;26.40;49.85;97778.84;5054805;28;20205;-70
2022/08/26 09:45:02;;;;;;;9.63;8.70;;;;;;;26.42;49.31;97782.03;5055165;28;20185;-70
2022/08/26 09:47:30;;;;;;;13.23;4.70;;;;;;;26.94;49.22;97783.41;5055116;28;20196;-70
2022/08/26 09:50:03;;;;;;;6.00;3.88;;;;;;;27.35;48.14;97776.41;5054631;28;20233;-70
2022/08/26 09:52:29;;;;;;;6.30;4.50;;;;;;;26.93;48.22;97770.09;5055141;28;20299;-71
2022/08/26 09:55:07;;;;;;;9.95;5.18;;;;;;;27.03;48.42;97759.59;5054704;28;20747;-70
2022/08/26 09:57:44;;;;;;;7.65;4.38;;;;;;;27.31;48.26;97750.91;5055169;28;20615;-70
2022/08/26 10:00:54;;;;;;;10.32;6.05;;;;;;;27.31;48.33;97742.72;5054513;28;20260;-70
2022/08/26 10:03:31;;;;;;;11.05;6.13;;;;;;;27.20;48.38;97745.03;5054782;28;20205;-70
2022/08/26 10:06:04;;;;;;;9.02;6.00;;;;;;;27.23;48.34;97738.94;5054565;28;20193;-71
2022/08/26 10:08:39;;;;;;;10.20;6.43;;;;;;;27.42;48.34;97741.16;5054577;28;20209;-70
2022/08/26 10:11:29;;;;;;;10.40;6.93;;;;;;;27.35;48.80;97741.69;5054092;28;20216;-71
2022/08/26 10:14:01;;;;;;;10.25;6.07;;;;;;;27.98;48.04;97740.47;5055001;28;20198;-70
2022/08/26 10:16:41;;;;;;;8.32;5.63;;;;;;;28.26;47.17;97739.47;5054420;28;20196;-70
2022/08/26 10:19:19;;;;;;;7.10;5.65;;;;;;;28.14;46.82;97728.56;5054396;28;20232;-70
2022/08/26 10:21:59;;;;;;;14.18;7.03;;;;;;;28.04;47.48;97725.44;5036534;28;20193;-70
2022/08/26 10:24:33;;;;;;;11.65;5.95;;;;;;;28.15;46.53;97727.41;5054387;28;20200;-70
2022/08/26 10:27:22;;;;;;;11.45;6.82;;;;;;;28.30;45.72;97721.25;5036712;28;20699;-71
2022/08/26 10:29:52;;;;;;;11.27;8.55;;;;;;;28.33;44.93;97722.50;5053995;28;20225;-70
2022/08/26 10:32:33;;;;;;;13.45;6.63;;;;;;;28.64;44.71;97711.81;5054307;28;20212;-70
2022/08/26 10:35:00;;;;;;;13.07;6.60;;;;;;;28.40;44.61;97722.78;5054235;28;20231;-70
2022/08/26 10:37:37;;;;;;;12.60;6.90;;;;;;;28.57;44.73;97717.88;5054011;28;20648;-70
2022/08/26 10:40:12;;;;;;;13.05;8.95;;;;;;;28.35;45.01;97718.28;5046474;28;20234;-70
2022/08/26 10:42:47;;;;;;;10.75;6.32;;;;;;;27.99;46.20;97722.94;5050518;28;20285;-71
2022/08/26 10:45:18;;;;;;;10.10;6.10;;;;;;;28.10;45.41;97713.97;5035748;28;20192;-70
2022/08/26 10:47:49;;;;;;;11.13;6.07;;;;;;;28.67;44.38;97716.63;5052230;28;20259;-70
2022/08/26 10:50:15;;;;;;;9.27;6.00;;;;;;;28.94;43.52;97708.47;5017082;28;20234;-71
2022/08/26 10:52:47;;;;;;;12.20;6.03;;;;;;;28.83;43.20;97704.63;5040742;28;20203;-70
2022/08/26 10:55:36;;;;;;;12.00;6.25;;;;;;;28.63;43.46;97700.09;5052222;28;20292;-71
2022/08/26 10:58:25;;;;;;;13.20;6.78;;;;;;;28.69;44.54;97695.97;5050389;28;20284;-71
2022/08/26 11:04:12;;;;;;;12.57;6.18;;;;;;;29.21;43.03;97688.56;5053661;28;20168;-71
2022/08/26 11:06:39;;;;;;;13.30;6.45;;;;;;;28.96;43.75;97686.22;5053648;28;20212;-71
2022/08/26 11:09:08;;;;;;;8.43;5.90;;;;;;;28.80;43.95;97680.66;5053182;28;20312;-70
2022/08/26 11:11:40;;;;;;;14.35;6.43;;;;;;;28.16;45.50;97685.25;5053352;28;20228;-70
2022/08/26 11:14:07;;;;;;;9.57;6.28;;;;;;;27.82;46.12;97684.88;5053139;28;20302;-70
2022/08/26 11:16:43;;;;;;;11.60;6.10;;;;;;;27.89;45.85;97672.25;5053215;28;20664;-70
2022/08/26 11:19:12;;;;;;;12.88;6.40;;;;;;;27.73;46.10;97675.94;5053463;28;20232;-70
2022/08/26 11:21:48;;;;;;;12.02;5.88;;;;;;;27.96;45.83;97683.44;5052945;28;20662;-70
2022/08/26 11:24:52;;;;;;;10.10;5.63;;;;;;;27.95;45.42;97681.84;5052724;28;20284;-70
2022/08/26 11:27:37;;;;;;;11.18;6.53;;;;;;;27.75;45.80;97682.66;4972138;28;20322;-70
2022/08/26 11:30:12;;;;;;;9.13;6.20;;;;;;;27.94;45.42;97687.63;5048037;28;20229;-70
2022/08/26 11:32:39;;;;;;;12.57;6.07;;;;;;;27.86;46.23;97681.13;5052693;28;20200;-70
2022/08/26 11:35:17;;;;;;;13.80;5.75;;;;;;;27.86;47.19;97667.47;5053184;28;20211;-70
2022/08/26 11:37:59;;;;;;;12.43;6.88;;;;;;;27.86;47.21;97672.13;5052792;28;20189;-70
2022/08/26 11:40:29;;;;;;;11.15;6.15;;;;;;;28.05;46.99;97667.72;5052798;28;20239;-70
2022/08/26 11:43:04;;;;;;;11.65;6.75;;;;;;;28.34;45.89;97664.75;5052720;28;20296;-70
2022/08/26 11:45:36;;;;;;;10.88;5.88;;;;;;;28.54;45.41;97647.47;5053887;28;20193;-70
2022/08/26 11:48:18;;;;;;;13.75;6.03;;;;;;;28.56;44.91;97645.16;5053091;28;20559;-70
2022/08/26 11:51:06;;;;;;;10.93;5.38;;;;;;;28.52;44.02;97646.22;5052881;28;20260;-70
2022/08/26 11:53:35;;;;;;;10.20;5.60;;;;;;;28.55;43.84;97642.75;5053108;28;20193;-70
2022/08/26 11:56:06;;;;;;;7.60;5.63;;;;;;;28.73;43.11;97647.66;5052663;28;20205;-70